createdAt,value
2022-10-11T00:05:29.916Z,100769.56
2022-10-11T00:11:31.824Z,100879.09
2022-10-11T00:17:34.277Z,100871.00
2022-10-11T00:23:36.496Z,100873.44
2022-10-11T00:29:38.604Z,100841.16
2022-10-11T00:35:41.846Z,100864.22
2022-10-11T00:41:43.603Z,100792.41
2022-10-11T00:47:45.323Z,100827.22
2022-10-11T00:53:50.963Z,100770.72
2022-10-11T00:59:55.185Z,100791.34
2022-10-11T01:05:57.066Z,100830.16
2022-10-11T01:12:00.677Z,100747.56
2022-10-11T01:18:14.733Z,100823.91
2022-10-11T01:24:22.481Z,100822.44
2022-10-11T01:30:27.703Z,100811.56
2022-10-11T01:36:40.551Z,100750.78
2022-10-11T01:42:43.924Z,100769.38
2022-10-11T01:48:55.752Z,100780.44
2022-10-11T01:55:21.702Z,100804.59
2022-10-11T02:01:29.995Z,100792.91
2022-10-11T02:07:52.150Z,100758.09
2022-10-11T02:14:00.600Z,100773.59
2022-10-11T02:20:09.673Z,100743.97
2022-10-11T02:26:14.755Z,100780.44
2022-10-11T02:32:17.829Z,100741.19
2022-10-11T02:38:24.989Z,100718.94
2022-10-11T02:44:35.474Z,100683.97
2022-10-11T02:50:39.811Z,100686.63
2022-10-11T02:56:41.841Z,100775.63
2022-10-11T03:02:43.772Z,100753.78
2022-10-11T03:08:45.687Z,100676.28
2022-10-11T03:14:47.523Z,100689.84
2022-10-11T03:20:49.330Z,100681.25
2022-10-11T03:26:51.394Z,100766.31
2022-10-11T03:32:53.266Z,100774.38
2022-10-11T03:38:55.070Z,100763.81
2022-10-11T03:44:57.411Z,100722.97
2022-10-11T03:50:59.266Z,100694.53
2022-10-11T03:57:01.070Z,100755.97
2022-10-11T04:03:06.134Z,100719.78
2022-10-11T04:09:07.947Z,100760.84
2022-10-11T04:15:13.550Z,100751.06
2022-10-11T04:21:15.598Z,100752.19
2022-10-11T04:27:17.643Z,100756.63
2022-10-11T04:33:19.487Z,100672.84
2022-10-11T04:39:21.368Z,100661.47
2022-10-11T04:45:23.293Z,100693.31
2022-10-11T04:51:25.491Z,100655.41
2022-10-11T04:57:27.498Z,100749.84
2022-10-11T05:03:29.710Z,100749.81
2022-10-11T05:09:31.579Z,100629.94
2022-10-11T05:15:34.110Z,100756.69
2022-10-11T05:21:36.088Z,100758.00
2022-10-11T05:27:38.160Z,100683.88
2022-10-11T05:33:46.450Z,100656.81
2022-10-11T05:46:07.488Z,100697.22
2022-10-11T05:52:10.808Z,100594.81
2022-10-11T05:58:18.813Z,100676.53
2022-10-11T06:04:20.686Z,100711.75
2022-10-11T06:10:22.526Z,100766.19
2022-10-11T06:16:25.195Z,100780.69
2022-10-11T06:22:27.608Z,100629.66
2022-10-11T06:28:29.875Z,100709.25
2022-10-11T06:34:31.655Z,100751.66
2022-10-11T06:40:33.405Z,100733.06
2022-10-11T06:46:35.136Z,100712.28
2022-10-11T06:52:37.022Z,100686.34
2022-10-11T06:58:40.025Z,100724.75
2022-10-11T07:04:41.823Z,100687.25
2022-10-11T07:10:43.756Z,100781.28
2022-10-11T07:16:45.587Z,100773.19
2022-10-11T07:22:47.474Z,100776.78
2022-10-11T07:28:49.402Z,100766.13
2022-10-11T07:34:51.172Z,100714.28
2022-10-11T07:40:52.918Z,100756.81
2022-10-11T07:46:54.634Z,100754.25
2022-10-11T07:52:56.466Z,100668.94
2022-10-11T07:59:01.730Z,100710.84
2022-10-11T08:05:03.963Z,100750.16
2022-10-11T08:11:06.516Z,100695.03
2022-10-11T08:17:09.424Z,100746.34
2022-10-11T08:23:11.534Z,100701.72
2022-10-11T08:29:14.559Z,100724.00
2022-10-11T08:35:17.223Z,100593.13
2022-10-11T08:41:55.623Z,100736.59
2022-10-11T08:48:30.634Z,100598.03
2022-10-11T08:54:48.472Z,100727.13
2022-10-11T09:01:00.220Z,100656.69
2022-10-11T09:07:20.252Z,100672.22
2022-10-11T09:27:18.672Z,100703.03
2022-10-11T16:24:06.954Z,100494.75
2022-10-11T16:30:12.259Z,100631.78
2022-10-11T16:36:41.726Z,100576.91
2022-10-11T16:42:45.993Z,100607.53
2022-10-11T16:48:50.232Z,100625.84
2022-10-11T16:54:52.120Z,100650.69
2022-10-11T17:00:54.224Z,100600.19
2022-10-11T17:06:56.723Z,100653.84
2022-10-11T17:12:58.582Z,100632.22
2022-10-11T17:19:00.900Z,100668.44
2022-10-11T17:25:03.908Z,100652.50
2022-10-11T17:31:06.297Z,100568.75
2022-10-11T17:37:10.220Z,100662.94
2022-10-11T17:43:12.110Z,100604.03
2022-10-11T17:49:14.639Z,100662.03
2022-10-11T17:55:16.853Z,100622.91
2022-10-11T18:01:21.207Z,100663.59
2022-10-11T18:07:24.389Z,100653.47
2022-10-11T18:13:26.294Z,100648.03
2022-10-11T18:19:28.337Z,100589.38
2022-10-11T18:25:33.696Z,100607.66
2022-10-11T18:31:36.063Z,100676.53
2022-10-11T18:37:38.085Z,100631.78
2022-10-11T18:43:40.021Z,100633.38
2022-10-11T18:49:41.954Z,100683.13
2022-10-11T18:55:43.764Z,100657.09
2022-10-11T19:01:46.382Z,100663.34
2022-10-11T19:07:48.408Z,100617.69
2022-10-11T19:13:58.473Z,100677.97
2022-10-11T19:20:00.328Z,100619.22
2022-10-11T19:26:02.723Z,100690.63
2022-10-11T19:32:04.963Z,100665.72
2022-10-11T19:38:06.805Z,100649.44
2022-10-11T19:44:08.988Z,100700.28
2022-10-11T19:50:10.931Z,100657.69
2022-10-11T19:56:15.758Z,100645.09
2022-10-11T20:02:17.527Z,100667.16
2022-10-11T20:08:19.411Z,100717.03
2022-10-11T20:14:21.389Z,100652.50
2022-10-11T20:20:23.191Z,100720.84
2022-10-11T20:26:26.674Z,100720.59
2022-10-11T20:32:28.760Z,100665.34
2022-10-11T20:38:32.164Z,100723.63
2022-10-11T20:44:33.993Z,100690.56
2022-10-11T20:50:35.934Z,100686.91
2022-10-11T20:56:38.807Z,100714.91
2022-10-11T21:02:40.563Z,100702.03
2022-10-11T21:08:42.524Z,100725.91
2022-10-11T21:14:44.658Z,100719.03
2022-10-11T21:20:46.729Z,100677.66
2022-10-11T21:26:48.508Z,100652.81
2022-10-11T21:32:51.081Z,100726.81
2022-10-11T21:38:53.430Z,100683.97
2022-10-11T21:44:55.250Z,100713.91
2022-10-11T21:50:57.044Z,100734.28
2022-10-11T21:56:58.872Z,100688.50
2022-10-11T22:03:00.649Z,100730.53
2022-10-11T22:09:03.918Z,100713.47
2022-10-11T22:15:06.476Z,100708.69
2022-10-11T22:21:13.705Z,100744.88
2022-10-11T22:27:15.686Z,100698.59
2022-10-11T22:33:17.513Z,100741.72
2022-10-11T22:39:19.358Z,100676.38
2022-10-11T22:45:21.226Z,100702.91
2022-10-11T22:51:23.342Z,100743.78
2022-10-11T22:57:25.333Z,100744.94
2022-10-11T23:03:27.221Z,100711.81
2022-10-11T23:09:29.194Z,100704.91
2022-10-11T23:15:31.037Z,100739.69
2022-10-11T23:21:32.859Z,100712.78
2022-10-11T23:27:34.846Z,100768.41
2022-10-11T23:33:37.140Z,100691.59
2022-10-11T23:39:38.997Z,100768.06
2022-10-11T23:45:40.778Z,100720.31
2022-10-11T23:51:42.610Z,100707.19
2022-10-11T23:57:44.447Z,100746.03
